sensor_id;sensor_type;location;lat;lon;timestamp;P1;durP1;ratioP1;P2;durP2;ratioP2
21601;SDS011;10963;50.934;4.668;2023-04-15T00:01:11;6.93;;;4.67;;
21601;SDS011;10963;50.934;4.668;2023-04-15T00:03:45;8.77;;;4.93;;
21601;SDS011;10963;50.934;4.668;2023-04-15T00:06:14;8.83;;;4.73;;
21601;SDS011;10963;50.934;4.668;2023-04-15T00:08:43;9.17;;;4.83;;
21601;SDS011;10963;50.934;4.668;2023-04-15T00:11:15;7.53;;;5.00;;
21601;SDS011;10963;50.934;4.668;2023-04-15T00:13:41;7.90;;;4.80;;
21601;SDS011;10963;50.934;4.668;2023-04-15T00:16:08;8.77;;;5.63;;
21601;SDS011;10963;50.934;4.668;2023-04-15T00:18:39;7.57;;;5.33;;
21601;SDS011;10963;50.934;4.668;2023-04-15T00:21:07;8.73;;;5.53;;
21601;SDS011;10963;50.934;4.668;2023-04-15T00:23:33;9.93;;;5.63;;
21601;SDS011;10963;50.934;4.668;2023-04-15T00:26:03;7.77;;;4.60;;
21601;SDS011;10963;50.934;4.668;2023-04-15T00:28:29;9.10;;;5.13;;
21601;SDS011;10963;50.934;4.668;2023-04-15T00:30:57;10.90;;;4.97;;
21601;SDS011;10963;50.934;4.668;2023-04-15T00:33:23;7.37;;;4.80;;
21601;SDS011;10963;50.934;4.668;2023-04-15T00:35:49;7.67;;;5.00;;
21601;SDS011;10963;50.934;4.668;2023-04-15T00:38:17;10.57;;;5.63;;
21601;SDS011;10963;50.934;4.668;2023-04-15T00:40:43;9.73;;;4.90;;
21601;SDS011;10963;50.934;4.668;2023-04-15T00:43:09;7.40;;;5.17;;
21601;SDS011;10963;50.934;4.668;2023-04-15T00:45:35;6.53;;;5.03;;
21601;SDS011;10963;50.934;4.668;2023-04-15T00:48:01;5.97;;;4.43;;
21601;SDS011;10963;50.934;4.668;2023-04-15T00:50:27;8.40;;;4.80;;
21601;SDS011;10963;50.934;4.668;2023-04-15T00:52:53;6.50;;;4.80;;
21601;SDS011;10963;50.934;4.668;2023-04-15T00:55:18;9.50;;;4.93;;
21601;SDS011;10963;50.934;4.668;2023-04-15T00:57:44;10.30;;;4.20;;
21601;SDS011;10963;50.934;4.668;2023-04-15T01:00:11;8.67;;;4.90;;
21601;SDS011;10963;50.934;4.668;2023-04-15T01:02:36;7.30;;;5.23;;
21601;SDS011;10963;50.934;4.668;2023-04-15T01:05:03;11.00;;;4.97;;
21601;SDS011;10963;50.934;4.668;2023-04-15T01:07:32;7.97;;;4.30;;
21601;SDS011;10963;50.934;4.668;2023-04-15T01:09:58;8.40;;;4.67;;
21601;SDS011;10963;50.934;4.668;2023-04-15T01:12:24;6.37;;;4.60;;
21601;SDS011;10963;50.934;4.668;2023-04-15T01:14:52;7.70;;;5.07;;
21601;SDS011;10963;50.934;4.668;2023-04-15T01:17:18;12.10;;;7.57;;
21601;SDS011;10963;50.934;4.668;2023-04-15T01:19:44;12.47;;;8.60;;
21601;SDS011;10963;50.934;4.668;2023-04-15T01:22:10;12.57;;;7.23;;
21601;SDS011;10963;50.934;4.668;2023-04-15T01:24:36;9.63;;;6.50;;
21601;SDS011;10963;50.934;4.668;2023-04-15T01:27:02;15.53;;;7.63;;
21601;SDS011;10963;50.934;4.668;2023-04-15T01:29:31;11.77;;;7.80;;
21601;SDS011;10963;50.934;4.668;2023-04-15T01:32:02;10.50;;;6.70;;
21601;SDS011;10963;50.934;4.668;2023-04-15T01:34:30;9.00;;;5.33;;
21601;SDS011;10963;50.934;4.668;2023-04-15T01:37:01;10.77;;;6.57;;
21601;SDS011;10963;50.934;4.668;2023-04-15T01:39:29;9.80;;;6.33;;
21601;SDS011;10963;50.934;4.668;2023-04-15T01:41:55;9.03;;;6.60;;
21601;SDS011;10963;50.934;4.668;2023-04-15T01:44:23;8.87;;;5.83;;
21601;SDS011;10963;50.934;4.668;2023-04-15T01:46:49;8.43;;;5.97;;
21601;SDS011;10963;50.934;4.668;2023-04-15T01:49:17;8.20;;;5.93;;
21601;SDS011;10963;50.934;4.668;2023-04-15T01:51:45;7.53;;;5.40;;
21601;SDS011;10963;50.934;4.668;2023-04-15T01:54:10;8.30;;;5.80;;
21601;SDS011;10963;50.934;4.668;2023-04-15T01:56:38;11.83;;;6.07;;
21601;SDS011;10963;50.934;4.668;2023-04-15T01:59:04;8.90;;;5.47;;
21601;SDS011;10963;50.934;4.668;2023-04-15T02:01:34;8.20;;;5.60;;
21601;SDS011;10963;50.934;4.668;2023-04-15T02:04:00;9.70;;;5.63;;
21601;SDS011;10963;50.934;4.668;2023-04-15T02:06:26;11.60;;;6.30;;
21601;SDS011;10963;50.934;4.668;2023-04-15T02:08:54;13.40;;;7.03;;
21601;SDS011;10963;50.934;4.668;2023-04-15T02:11:20;15.20;;;8.80;;
21601;SDS011;10963;50.934;4.668;2023-04-15T02:13:47;13.40;;;8.93;;
21601;SDS011;10963;50.934;4.668;2023-04-15T02:16:16;15.83;;;9.90;;
21601;SDS011;10963;50.934;4.668;2023-04-15T02:18:49;15.70;;;9.00;;
21601;SDS011;10963;50.934;4.668;2023-04-15T02:21:16;9.23;;;6.83;;
21601;SDS011;10963;50.934;4.668;2023-04-15T02:23:42;13.57;;;6.17;;
21601;SDS011;10963;50.934;4.668;2023-04-15T02:26:08;9.20;;;6.33;;
21601;SDS011;10963;50.934;4.668;2023-04-15T02:28:36;9.13;;;5.70;;
21601;SDS011;10963;50.934;4.668;2023-04-15T02:31:05;7.73;;;5.90;;
21601;SDS011;10963;50.934;4.668;2023-04-15T02:33:32;9.87;;;5.03;;
21601;SDS011;10963;50.934;4.668;2023-04-15T02:35:58;6.47;;;5.53;;
21601;SDS011;10963;50.934;4.668;2023-04-15T02:38:26;7.23;;;4.80;;
21601;SDS011;10963;50.934;4.668;2023-04-15T02:40:51;9.63;;;5.63;;
21601;SDS011;10963;50.934;4.668;2023-04-15T02:43:19;9.10;;;5.60;;
21601;SDS011;10963;50.934;4.668;2023-04-15T02:45:45;9.23;;;5.23;;
21601;SDS011;10963;50.934;4.668;2023-04-15T02:48:11;10.17;;;5.43;;
21601;SDS011;10963;50.934;4.668;2023-04-15T02:50:37;9.47;;;5.93;;
21601;SDS011;10963;50.934;4.668;2023-04-15T02:53:05;12.53;;;5.93;;
21601;SDS011;10963;50.934;4.668;2023-04-15T02:55:31;8.43;;;5.20;;
21601;SDS011;10963;50.934;4.668;2023-04-15T02:57:57;11.20;;;5.70;;
21601;SDS011;10963;50.934;4.668;2023-04-15T03:00:25;9.67;;;5.90;;
21601;SDS011;10963;50.934;4.668;2023-04-15T03:02:57;8.70;;;5.63;;
21601;SDS011;10963;50.934;4.668;2023-04-15T03:05:26;9.27;;;5.87;;
21601;SDS011;10963;50.934;4.668;2023-04-15T03:07:51;11.50;;;5.90;;
21601;SDS011;10963;50.934;4.668;2023-04-15T03:10:17;8.93;;;5.70;;
21601;SDS011;10963;50.934;4.668;2023-04-15T03:12:46;10.13;;;5.53;;
21601;SDS011;10963;50.934;4.668;2023-04-15T03:15:16;10.00;;;5.30;;
21601;SDS011;10963;50.934;4.668;2023-04-15T03:17:44;12.93;;;5.20;;
21601;SDS011;10963;50.934;4.668;2023-04-15T03:20:13;8.00;;;5.37;;
21601;SDS011;10963;50.934;4.668;2023-04-15T03:22:41;7.53;;;5.40;;
21601;SDS011;10963;50.934;4.668;2023-04-15T03:25:07;15.23;;;5.53;;
21601;SDS011;10963;50.934;4.668;2023-04-15T03:27:36;6.87;;;5.47;;
21601;SDS011;10963;50.934;4.668;2023-04-15T03:30:02;8.17;;;5.57;;
21601;SDS011;10963;50.934;4.668;2023-04-15T03:32:28;7.47;;;5.77;;
21601;SDS011;10963;50.934;4.668;2023-04-15T03:34:54;6.50;;;4.90;;
21601;SDS011;10963;50.934;4.668;2023-04-15T03:37:20;11.63;;;5.90;;
21601;SDS011;10963;50.934;4.668;2023-04-15T03:39:47;8.17;;;5.17;;
21601;SDS011;10963;50.934;4.668;2023-04-15T03:42:15;11.40;;;6.43;;
21601;SDS011;10963;50.934;4.668;2023-04-15T03:44:46;8.37;;;6.13;;
21601;SDS011;10963;50.934;4.668;2023-04-15T03:47:14;14.03;;;5.40;;
21601;SDS011;10963;50.934;4.668;2023-04-15T03:49:39;12.33;;;5.80;;
21601;SDS011;10963;50.934;4.668;2023-04-15T03:52:07;14.40;;;6.03;;
21601;SDS011;10963;50.934;4.668;2023-04-15T03:54:35;11.90;;;5.93;;
21601;SDS011;10963;50.934;4.668;2023-04-15T03:57:01;9.27;;;6.60;;
21601;SDS011;10963;50.934;4.668;2023-04-15T03:59:29;10.60;;;5.97;;
21601;SDS011;10963;50.934;4.668;2023-04-15T04:01:55;9.00;;;5.10;;
21601;SDS011;10963;50.934;4.668;2023-04-15T04:04:21;13.60;;;6.77;;
21601;SDS011;10963;50.934;4.668;2023-04-15T04:06:46;7.57;;;5.73;;
21601;SDS011;10963;50.934;4.668;2023-04-15T04:09:12;6.87;;;5.53;;
21601;SDS011;10963;50.934;4.668;2023-04-15T04:11:38;8.30;;;6.23;;
21601;SDS011;10963;50.934;4.668;2023-04-15T04:14:06;10.10;;;6.33;;
21601;SDS011;10963;50.934;4.668;2023-04-15T04:16:34;10.43;;;6.60;;
21601;SDS011;10963;50.934;4.668;2023-04-15T04:19:00;8.33;;;6.30;;
21601;SDS011;10963;50.934;4.668;2023-04-15T04:21:26;10.37;;;6.77;;
21601;SDS011;10963;50.934;4.668;2023-04-15T04:23:54;13.13;;;6.70;;
21601;SDS011;10963;50.934;4.668;2023-04-15T04:26:20;13.53;;;6.50;;
21601;SDS011;10963;50.934;4.668;2023-04-15T04:28:46;12.07;;;6.70;;
21601;SDS011;10963;50.934;4.668;2023-04-15T04:31:12;12.47;;;7.53;;
21601;SDS011;10963;50.934;4.668;2023-04-15T04:33:41;10.00;;;6.30;;
21601;SDS011;10963;50.934;4.668;2023-04-15T04:36:06;11.53;;;7.50;;
21601;SDS011;10963;50.934;4.668;2023-04-15T04:38:37;13.87;;;6.83;;
21601;SDS011;10963;50.934;4.668;2023-04-15T04:41:04;10.27;;;6.23;;
21601;SDS011;10963;50.934;4.668;2023-04-15T04:43:30;12.27;;;7.97;;
21601;SDS011;10963;50.934;4.668;2023-04-15T04:45:58;10.57;;;6.67;;
21601;SDS011;10963;50.934;4.668;2023-04-15T04:48:24;13.97;;;6.57;;
21601;SDS011;10963;50.934;4.668;2023-04-15T04:50:50;11.67;;;7.47;;
21601;SDS011;10963;50.934;4.668;2023-04-15T04:53:16;10.40;;;6.93;;
21601;SDS011;10963;50.934;4.668;2023-04-15T04:55:44;12.27;;;7.10;;
21601;SDS011;10963;50.934;4.668;2023-04-15T04:58:09;10.90;;;7.03;;
21601;SDS011;10963;50.934;4.668;2023-04-15T05:00:40;13.57;;;7.47;;
21601;SDS011;10963;50.934;4.668;2023-04-15T05:03:06;10.37;;;6.70;;
21601;SDS011;10963;50.934;4.668;2023-04-15T05:05:31;13.13;;;6.80;;
21601;SDS011;10963;50.934;4.668;2023-04-15T05:07:59;11.27;;;7.30;;
21601;SDS011;10963;50.934;4.668;2023-04-15T05:10:25;10.87;;;7.37;;
21601;SDS011;10963;50.934;4.668;2023-04-15T05:12:53;11.37;;;7.10;;
21601;SDS011;10963;50.934;4.668;2023-04-15T05:15:21;10.50;;;7.10;;
21601;SDS011;10963;50.934;4.668;2023-04-15T05:17:49;16.17;;;8.17;;
21601;SDS011;10963;50.934;4.668;2023-04-15T05:20:15;12.37;;;7.67;;
21601;SDS011;10963;50.934;4.668;2023-04-15T05:22:41;10.53;;;7.90;;
21601;SDS011;10963;50.934;4.668;2023-04-15T05:25:09;11.23;;;7.37;;
21601;SDS011;10963;50.934;4.668;2023-04-15T05:27:35;9.43;;;7.23;;
21601;SDS011;10963;50.934;4.668;2023-04-15T05:30:02;11.20;;;7.50;;
21601;SDS011;10963;50.934;4.668;2023-04-15T05:32:34;12.17;;;6.87;;
21601;SDS011;10963;50.934;4.668;2023-04-15T05:34:59;12.20;;;7.10;;
21601;SDS011;10963;50.934;4.668;2023-04-15T05:37:29;8.60;;;7.33;;
21601;SDS011;10963;50.934;4.668;2023-04-15T05:39:55;12.50;;;7.40;;
21601;SDS011;10963;50.934;4.668;2023-04-15T05:42:23;12.90;;;7.80;;
21601;SDS011;10963;50.934;4.668;2023-04-15T05:44:49;10.57;;;7.20;;
21601;SDS011;10963;50.934;4.668;2023-04-15T05:47:15;9.43;;;6.40;;
21601;SDS011;10963;50.934;4.668;2023-04-15T05:49:41;11.33;;;7.20;;
21601;SDS011;10963;50.934;4.668;2023-04-15T05:52:06;11.40;;;6.53;;
21601;SDS011;10963;50.934;4.668;2023-04-15T05:54:32;11.20;;;7.07;;
21601;SDS011;10963;50.934;4.668;2023-04-15T05:57:03;11.97;;;7.27;;
21601;SDS011;10963;50.934;4.668;2023-04-15T05:59:31;11.50;;;7.57;;
21601;SDS011;10963;50.934;4.668;2023-04-15T06:01:59;12.50;;;7.67;;
21601;SDS011;10963;50.934;4.668;2023-04-15T06:04:25;12.77;;;7.00;;
21601;SDS011;10963;50.934;4.668;2023-04-15T06:06:53;9.97;;;6.73;;
21601;SDS011;10963;50.934;4.668;2023-04-15T06:09:18;15.10;;;7.17;;
21601;SDS011;10963;50.934;4.668;2023-04-15T06:11:46;12.93;;;7.47;;
21601;SDS011;10963;50.934;4.668;2023-04-15T06:14:12;11.97;;;7.30;;
21601;SDS011;10963;50.934;4.668;2023-04-15T06:16:38;13.70;;;8.50;;
21601;SDS011;10963;50.934;4.668;2023-04-15T06:19:06;13.40;;;7.17;;
21601;SDS011;10963;50.934;4.668;2023-04-15T06:21:36;14.40;;;7.57;;
21601;SDS011;10963;50.934;4.668;2023-04-15T06:24:02;11.47;;;7.20;;
21601;SDS011;10963;50.934;4.668;2023-04-15T06:26:28;10.00;;;7.13;;
21601;SDS011;10963;50.934;4.668;2023-04-15T06:28:54;17.30;;;7.43;;
21601;SDS011;10963;50.934;4.668;2023-04-15T06:31:19;14.53;;;7.33;;
21601;SDS011;10963;50.934;4.668;2023-04-15T06:33:45;14.40;;;7.90;;
21601;SDS011;10963;50.934;4.668;2023-04-15T06:36:11;16.17;;;7.53;;
21601;SDS011;10963;50.934;4.668;2023-04-15T06:38:42;13.37;;;8.07;;
21601;SDS011;10963;50.934;4.668;2023-04-15T06:41:07;13.93;;;7.80;;
21601;SDS011;10963;50.934;4.668;2023-04-15T06:43:36;12.10;;;7.97;;
21601;SDS011;10963;50.934;4.668;2023-04-15T06:46:07;13.03;;;8.10;;
21601;SDS011;10963;50.934;4.668;2023-04-15T06:48:33;11.70;;;8.37;;
21601;SDS011;10963;50.934;4.668;2023-04-15T06:50:58;11.37;;;8.03;;
21601;SDS011;10963;50.934;4.668;2023-04-15T06:53:24;10.57;;;7.20;;
21601;SDS011;10963;50.934;4.668;2023-04-15T06:55:53;15.67;;;8.63;;
21601;SDS011;10963;50.934;4.668;2023-04-15T06:58:23;11.23;;;8.67;;
21601;SDS011;10963;50.934;4.668;2023-04-15T07:00:54;15.17;;;8.60;;
21601;SDS011;10963;50.934;4.668;2023-04-15T07:03:20;17.80;;;9.97;;
21601;SDS011;10963;50.934;4.668;2023-04-15T07:05:46;14.50;;;9.10;;
21601;SDS011;10963;50.934;4.668;2023-04-15T07:08:12;19.50;;;9.93;;
21601;SDS011;10963;50.934;4.668;2023-04-15T07:10:38;17.40;;;10.10;;
21601;SDS011;10963;50.934;4.668;2023-04-15T07:13:04;19.70;;;10.40;;
21601;SDS011;10963;50.934;4.668;2023-04-15T07:15:33;13.33;;;9.30;;
21601;SDS011;10963;50.934;4.668;2023-04-15T07:17:58;15.90;;;10.20;;
21601;SDS011;10963;50.934;4.668;2023-04-15T07:20:26;19.00;;;10.63;;
21601;SDS011;10963;50.934;4.668;2023-04-15T07:22:52;18.57;;;10.57;;
21601;SDS011;10963;50.934;4.668;2023-04-15T07:25:20;16.67;;;10.70;;
21601;SDS011;10963;50.934;4.668;2023-04-15T07:27:51;18.60;;;11.53;;
21601;SDS011;10963;50.934;4.668;2023-04-15T07:30:17;14.20;;;10.17;;
21601;SDS011;10963;50.934;4.668;2023-04-15T07:32:43;18.73;;;10.57;;
21601;SDS011;10963;50.934;4.668;2023-04-15T07:35:12;19.27;;;11.57;;
21601;SDS011;10963;50.934;4.668;2023-04-15T07:37:38;18.93;;;11.40;;
21601;SDS011;10963;50.934;4.668;2023-04-15T07:40:04;18.60;;;10.60;;
21601;SDS011;10963;50.934;4.668;2023-04-15T07:42:31;14.87;;;9.93;;
21601;SDS011;10963;50.934;4.668;2023-04-15T07:44:58;19.27;;;11.03;;
21601;SDS011;10963;50.934;4.668;2023-04-15T07:47:23;18.17;;;10.17;;
21601;SDS011;10963;50.934;4.668;2023-04-15T07:49:51;13.93;;;10.70;;
21601;SDS011;10963;50.934;4.668;2023-04-15T07:52:17;13.43;;;9.23;;
21601;SDS011;10963;50.934;4.668;2023-04-15T07:54:45;15.23;;;10.13;;
21601;SDS011;10963;50.934;4.668;2023-04-15T07:57:13;17.67;;;9.57;;
21601;SDS011;10963;50.934;4.668;2023-04-15T07:59:40;14.73;;;9.37;;
21601;SDS011;10963;50.934;4.668;2023-04-15T08:02:06;16.77;;;10.13;;
21601;SDS011;10963;50.934;4.668;2023-04-15T08:04:32;12.17;;;8.70;;
21601;SDS011;10963;50.934;4.668;2023-04-15T08:07:00;13.63;;;9.17;;
21601;SDS011;10963;50.934;4.668;2023-04-15T08:09:26;16.20;;;9.27;;
21601;SDS011;10963;50.934;4.668;2023-04-15T08:11:55;14.60;;;8.37;;
21601;SDS011;10963;50.934;4.668;2023-04-15T08:14:21;17.43;;;8.60;;
21601;SDS011;10963;50.934;4.668;2023-04-15T08:16:49;15.83;;;9.07;;
21601;SDS011;10963;50.934;4.668;2023-04-15T08:19:15;13.30;;;8.57;;
21601;SDS011;10963;50.934;4.668;2023-04-15T08:21:41;14.30;;;8.53;;
21601;SDS011;10963;50.934;4.668;2023-04-15T08:24:06;12.87;;;8.40;;
21601;SDS011;10963;50.934;4.668;2023-04-15T08:26:37;14.90;;;8.87;;
21601;SDS011;10963;50.934;4.668;2023-04-15T08:29:06;13.90;;;8.13;;
21601;SDS011;10963;50.934;4.668;2023-04-15T08:31:34;11.77;;;8.33;;
21601;SDS011;10963;50.934;4.668;2023-04-15T08:33:59;17.13;;;8.90;;
21601;SDS011;10963;50.934;4.668;2023-04-15T08:36:25;12.33;;;8.57;;
21601;SDS011;10963;50.934;4.668;2023-04-15T08:38:51;15.10;;;9.53;;
21601;SDS011;10963;50.934;4.668;2023-04-15T08:41:20;15.40;;;9.20;;
21601;SDS011;10963;50.934;4.668;2023-04-15T08:43:51;15.27;;;9.33;;
21601;SDS011;10963;50.934;4.668;2023-04-15T08:46:17;20.67;;;10.00;;
21601;SDS011;10963;50.934;4.668;2023-04-15T08:48:44;15.40;;;10.03;;
21601;SDS011;10963;50.934;4.668;2023-04-15T08:51:12;14.13;;;8.80;;
21601;SDS011;10963;50.934;4.668;2023-04-15T08:53:41;17.30;;;10.10;;
21601;SDS011;10963;50.934;4.668;2023-04-15T08:56:08;17.47;;;9.67;;
21601;SDS011;10963;50.934;4.668;2023-04-15T08:58:39;13.80;;;10.03;;
21601;SDS011;10963;50.934;4.668;2023-04-15T09:01:05;13.30;;;9.83;;
21601;SDS011;10963;50.934;4.668;2023-04-15T09:03:33;14.13;;;10.07;;
21601;SDS011;10963;50.934;4.668;2023-04-15T09:06:00;13.83;;;9.50;;
21601;SDS011;10963;50.934;4.668;2023-04-15T09:08:29;11.87;;;8.53;;
21601;SDS011;10963;50.934;4.668;2023-04-15T09:10:55;12.10;;;8.67;;
21601;SDS011;10963;50.934;4.668;2023-04-15T09:13:23;16.47;;;9.00;;
21601;SDS011;10963;50.934;4.668;2023-04-15T09:15:49;15.57;;;8.87;;
21601;SDS011;10963;50.934;4.668;2023-04-15T09:18:28;12.10;;;8.47;;
21601;SDS011;10963;50.934;4.668;2023-04-15T09:23:32;15.90;;;8.33;;
21601;SDS011;10963;50.934;4.668;2023-04-15T09:26:00;11.73;;;7.87;;
21601;SDS011;10963;50.934;4.668;2023-04-15T09:28:27;14.50;;;8.63;;
21601;SDS011;10963;50.934;4.668;2023-04-15T09:30:59;15.27;;;8.60;;
21601;SDS011;10963;50.934;4.668;2023-04-15T09:33:26;12.60;;;7.93;;
21601;SDS011;10963;50.934;4.668;2023-04-15T09:36:00;12.97;;;7.27;;
21601;SDS011;10963;50.934;4.668;2023-04-15T09:38:28;11.40;;;7.10;;
21601;SDS011;10963;50.934;4.668;2023-04-15T09:40:59;10.47;;;7.33;;
21601;SDS011;10963;50.934;4.668;2023-04-15T09:43:37;12.40;;;7.57;;
21601;SDS011;10963;50.934;4.668;2023-04-15T09:46:06;10.10;;;7.07;;
21601;SDS011;10963;50.934;4.668;2023-04-15T09:48:34;8.47;;;5.73;;
21601;SDS011;10963;50.934;4.668;2023-04-15T09:51:00;7.37;;;5.90;;
21601;SDS011;10963;50.934;4.668;2023-04-15T09:53:29;7.40;;;5.43;;
21601;SDS011;10963;50.934;4.668;2023-04-15T09:56:01;8.13;;;6.13;;
21601;SDS011;10963;50.934;4.668;2023-04-15T09:58:31;7.00;;;5.23;;
21601;SDS011;10963;50.934;4.668;2023-04-15T10:00:59;8.63;;;5.33;;
21601;SDS011;10963;50.934;4.668;2023-04-15T10:03:32;10.00;;;5.40;;
21601;SDS011;10963;50.934;4.668;2023-04-15T10:06:02;8.63;;;5.10;;
21601;SDS011;10963;50.934;4.668;2023-04-15T10:08:32;6.83;;;4.43;;
21601;SDS011;10963;50.934;4.668;2023-04-15T10:11:01;8.17;;;4.93;;
21601;SDS011;10963;50.934;4.668;2023-04-15T10:13:29;9.10;;;4.70;;
21601;SDS011;10963;50.934;4.668;2023-04-15T10:16:08;7.40;;;4.53;;
21601;SDS011;10963;50.934;4.668;2023-04-15T10:18:42;7.77;;;4.43;;
21601;SDS011;10963;50.934;4.668;2023-04-15T10:21:12;6.00;;;4.47;;
21601;SDS011;10963;50.934;4.668;2023-04-15T10:23:44;5.17;;;3.73;;
21601;SDS011;10963;50.934;4.668;2023-04-15T10:26:11;11.70;;;4.20;;
21601;SDS011;10963;50.934;4.668;2023-04-15T10:28:39;6.87;;;4.63;;
21601;SDS011;10963;50.934;4.668;2023-04-15T10:31:07;7.57;;;4.50;;
21601;SDS011;10963;50.934;4.668;2023-04-15T10:33:36;7.37;;;4.43;;
21601;SDS011;10963;50.934;4.668;2023-04-15T10:36:03;5.97;;;4.43;;
21601;SDS011;10963;50.934;4.668;2023-04-15T10:51:41;8.43;;;4.60;;
21601;SDS011;10963;50.934;4.668;2023-04-15T10:56:51;6.90;;;4.70;;
21601;SDS011;10963;50.934;4.668;2023-04-15T11:02:28;7.87;;;4.37;;
21601;SDS011;10963;50.934;4.668;2023-04-15T11:05:22;7.20;;;4.30;;
21601;SDS011;10963;50.934;4.668;2023-04-15T11:08:10;11.50;;;4.37;;
21601;SDS011;10963;50.934;4.668;2023-04-15T11:13:04;8.93;;;4.80;;
21601;SDS011;10963;50.934;4.668;2023-04-15T11:15:42;6.97;;;4.43;;
21601;SDS011;10963;50.934;4.668;2023-04-15T11:18:10;11.10;;;5.70;;
21601;SDS011;10963;50.934;4.668;2023-04-15T11:20:40;8.87;;;6.03;;
21601;SDS011;10963;50.934;4.668;2023-04-15T11:23:09;7.53;;;4.93;;
21601;SDS011;10963;50.934;4.668;2023-04-15T11:25:35;8.57;;;4.93;;
21601;SDS011;10963;50.934;4.668;2023-04-15T11:28:04;7.50;;;4.37;;
21601;SDS011;10963;50.934;4.668;2023-04-15T11:30:31;4.50;;;3.40;;
21601;SDS011;10963;50.934;4.668;2023-04-15T11:33:04;7.13;;;4.83;;
21601;SDS011;10963;50.934;4.668;2023-04-15T11:35:32;6.20;;;4.40;;
21601;SDS011;10963;50.934;4.668;2023-04-15T11:38:07;5.57;;;4.07;;
21601;SDS011;10963;50.934;4.668;2023-04-15T11:40:36;6.73;;;3.70;;
21601;SDS011;10963;50.934;4.668;2023-04-15T11:45:36;5.87;;;3.60;;
21601;SDS011;10963;50.934;4.668;2023-04-15T11:48:06;4.70;;;3.17;;
21601;SDS011;10963;50.934;4.668;2023-04-15T11:50:36;4.57;;;3.03;;
21601;SDS011;10963;50.934;4.668;2023-04-15T11:53:04;4.50;;;2.93;;
21601;SDS011;10963;50.934;4.668;2023-04-15T11:55:43;8.53;;;3.87;;
21601;SDS011;10963;50.934;4.668;2023-04-15T12:00:46;5.50;;;2.77;;
21601;SDS011;10963;50.934;4.668;2023-04-15T12:13:57;4.03;;;3.10;;
21601;SDS011;10963;50.934;4.668;2023-04-15T12:16:28;6.70;;;3.73;;
21601;SDS011;10963;50.934;4.668;2023-04-15T12:18:57;6.22;;;3.72;;
21601;SDS011;10963;50.934;4.668;2023-04-15T12:21:24;3.33;;;2.60;;
21601;SDS011;10963;50.934;4.668;2023-04-15T12:23:51;3.50;;;2.10;;
21601;SDS011;10963;50.934;4.668;2023-04-15T12:26:24;3.27;;;1.83;;
21601;SDS011;10963;50.934;4.668;2023-04-15T12:28:59;2.60;;;2.00;;
21601;SDS011;10963;50.934;4.668;2023-04-15T12:31:35;4.70;;;1.83;;
21601;SDS011;10963;50.934;4.668;2023-04-15T12:34:02;2.53;;;1.53;;
21601;SDS011;10963;50.934;4.668;2023-04-15T12:36:36;3.77;;;1.60;;
21601;SDS011;10963;50.934;4.668;2023-04-15T12:39:02;3.63;;;1.93;;
21601;SDS011;10963;50.934;4.668;2023-04-15T12:41:29;3.63;;;2.23;;
21601;SDS011;10963;50.934;4.668;2023-04-15T12:43:55;3.67;;;2.10;;
21601;SDS011;10963;50.934;4.668;2023-04-15T12:46:23;3.20;;;1.83;;
21601;SDS011;10963;50.934;4.668;2023-04-15T12:48:51;2.60;;;1.87;;
21601;SDS011;10963;50.934;4.668;2023-04-15T12:51:17;5.17;;;2.40;;
21601;SDS011;10963;50.934;4.668;2023-04-15T12:53:45;4.03;;;2.20;;
21601;SDS011;10963;50.934;4.668;2023-04-15T12:56:12;5.77;;;2.47;;
21601;SDS011;10963;50.934;4.668;2023-04-15T12:58:40;5.73;;;2.30;;
21601;SDS011;10963;50.934;4.668;2023-04-15T13:01:06;6.30;;;3.00;;
21601;SDS011;10963;50.934;4.668;2023-04-15T13:03:34;4.10;;;2.17;;
21601;SDS011;10963;50.934;4.668;2023-04-15T13:06:04;7.80;;;2.67;;
21601;SDS011;10963;50.934;4.668;2023-04-15T13:08:31;2.60;;;2.00;;
21601;SDS011;10963;50.934;4.668;2023-04-15T13:10:57;3.37;;;2.60;;
21601;SDS011;10963;50.934;4.668;2023-04-15T13:13:22;2.87;;;2.40;;
21601;SDS011;10963;50.934;4.668;2023-04-15T13:15:50;4.50;;;2.40;;
21601;SDS011;10963;50.934;4.668;2023-04-15T13:18:18;2.00;;;1.80;;
21601;SDS011;10963;50.934;4.668;2023-04-15T13:20:44;4.57;;;1.80;;
21601;SDS011;10963;50.934;4.668;2023-04-15T13:23:12;4.67;;;2.30;;
21601;SDS011;10963;50.934;4.668;2023-04-15T13:25:41;3.73;;;2.60;;
21601;SDS011;10963;50.934;4.668;2023-04-15T13:28:10;4.80;;;2.73;;
21601;SDS011;10963;50.934;4.668;2023-04-15T13:30:36;4.13;;;2.53;;
21601;SDS011;10963;50.934;4.668;2023-04-15T13:33:02;5.43;;;2.37;;
21601;SDS011;10963;50.934;4.668;2023-04-15T13:35:28;7.57;;;2.43;;
21601;SDS011;10963;50.934;4.668;2023-04-15T13:37:55;3.17;;;2.37;;
21601;SDS011;10963;50.934;4.668;2023-04-15T13:40:23;5.33;;;2.80;;
21601;SDS011;10963;50.934;4.668;2023-04-15T13:42:50;5.07;;;3.97;;
21601;SDS011;10963;50.934;4.668;2023-04-15T13:45:17;6.67;;;3.33;;
21601;SDS011;10963;50.934;4.668;2023-04-15T13:47:43;4.90;;;3.37;;
21601;SDS011;10963;50.934;4.668;2023-04-15T13:50:08;3.80;;;2.73;;
21601;SDS011;10963;50.934;4.668;2023-04-15T13:52:35;6.30;;;3.23;;
21601;SDS011;10963;50.934;4.668;2023-04-15T13:55:03;7.93;;;3.40;;
21601;SDS011;10963;50.934;4.668;2023-04-15T13:57:31;7.00;;;2.90;;
21601;SDS011;10963;50.934;4.668;2023-04-15T13:59:59;5.67;;;2.20;;
21601;SDS011;10963;50.934;4.668;2023-04-15T14:02:31;5.10;;;2.77;;
21601;SDS011;10963;50.934;4.668;2023-04-15T14:04:56;6.03;;;2.57;;
21601;SDS011;10963;50.934;4.668;2023-04-15T14:07:24;3.47;;;2.60;;
21601;SDS011;10963;50.934;4.668;2023-04-15T14:09:50;3.57;;;2.30;;
21601;SDS011;10963;50.934;4.668;2023-04-15T14:12:18;4.70;;;1.80;;
21601;SDS011;10963;50.934;4.668;2023-04-15T14:14:44;3.57;;;1.97;;
21601;SDS011;10963;50.934;4.668;2023-04-15T14:17:13;4.73;;;2.17;;
21601;SDS011;10963;50.934;4.668;2023-04-15T14:19:38;2.67;;;1.93;;
21601;SDS011;10963;50.934;4.668;2023-04-15T14:22:09;4.43;;;2.23;;
21601;SDS011;10963;50.934;4.668;2023-04-15T14:24:34;7.33;;;2.67;;
21601;SDS011;10963;50.934;4.668;2023-04-15T14:27:04;3.87;;;1.93;;
21601;SDS011;10963;50.934;4.668;2023-04-15T14:29:35;2.83;;;1.73;;
21601;SDS011;10963;50.934;4.668;2023-04-15T14:32:00;4.53;;;2.20;;
21601;SDS011;10963;50.934;4.668;2023-04-15T14:34:26;12.00;;;2.57;;
21601;SDS011;10963;50.934;4.668;2023-04-15T14:36:52;2.70;;;1.87;;
21601;SDS011;10963;50.934;4.668;2023-04-15T14:39:20;3.97;;;2.10;;
21601;SDS011;10963;50.934;4.668;2023-04-15T14:41:48;3.90;;;2.30;;
21601;SDS011;10963;50.934;4.668;2023-04-15T14:44:14;4.60;;;2.30;;
21601;SDS011;10963;50.934;4.668;2023-04-15T14:46:42;7.47;;;1.90;;
21601;SDS011;10963;50.934;4.668;2023-04-15T14:49:08;2.87;;;2.17;;
21601;SDS011;10963;50.934;4.668;2023-04-15T14:51:36;3.83;;;2.17;;
21601;SDS011;10963;50.934;4.668;2023-04-15T14:54:04;4.50;;;2.23;;
21601;SDS011;10963;50.934;4.668;2023-04-15T14:56:29;5.53;;;2.40;;
21601;SDS011;10963;50.934;4.668;2023-04-15T14:58:58;4.90;;;2.27;;
21601;SDS011;10963;50.934;4.668;2023-04-15T15:01:24;3.27;;;2.03;;
21601;SDS011;10963;50.934;4.668;2023-04-15T15:03:52;5.57;;;2.33;;
21601;SDS011;10963;50.934;4.668;2023-04-15T15:06:19;5.27;;;2.30;;
21601;SDS011;10963;50.934;4.668;2023-04-15T15:08:45;5.40;;;2.10;;
21601;SDS011;10963;50.934;4.668;2023-04-15T15:11:11;6.40;;;1.77;;
21601;SDS011;10963;50.934;4.668;2023-04-15T15:13:40;4.53;;;2.27;;
21601;SDS011;10963;50.934;4.668;2023-04-15T15:16:05;3.10;;;2.50;;
21601;SDS011;10963;50.934;4.668;2023-04-15T15:18:31;2.80;;;2.10;;
21601;SDS011;10963;50.934;4.668;2023-04-15T15:20:57;6.30;;;1.83;;
21601;SDS011;10963;50.934;4.668;2023-04-15T15:23:23;6.00;;;2.20;;